AAL7 KBHM-KDAY
Flight info
| Callsign | AAL7 |
|---|---|
| Flight time | 1h 3m |
| Altitude | 37000 |
| Route | RHETT BNA IIU CVG HICKS FIITZ |
| Aircraft | A319/M-SDE3FGHIRWY/LB1 |
Departure
| Time | 2026-05-09 00:53 |
|---|---|
| Airport | Birmingham-Shuttlesworth International Airport (KBHM) |
Arrival
| Time | 2026-05-09 01:56 |
|---|---|
| Airport | James M. Cox Dayton International Airport (KDAY) |
| Time | Latitude | Longitude | Altitude | Speed | Heading |
|---|---|---|---|---|---|
| 2026-05-09 00:27 | 33.56316 | -86.75130 | 629 ft | 0 kts | 146° |
| 2026-05-09 00:37 | 33.56319 | -86.75132 | 624 ft | 2 kts | 146° |
| 2026-05-09 00:38 | 33.56334 | -86.75145 | 631 ft | 3 kts | 146° |
| 2026-05-09 00:38 | 33.56351 | -86.75159 | 629 ft | 3 kts | 146° |
| 2026-05-09 00:38 | 33.56367 | -86.75172 | 632 ft | 3 kts | 126° |
| 2026-05-09 00:38 | 33.56373 | -86.75178 | 634 ft | 2 kts | 57° |
| 2026-05-09 00:39 | 33.56366 | -86.75190 | 637 ft | 3 kts | 55° |
| 2026-05-09 00:39 | 33.56360 | -86.75200 | 630 ft | 0 kts | 55° |
| 2026-05-09 00:47 | 33.56368 | -86.75194 | 637 ft | 6 kts | 36° |
| 2026-05-09 00:47 | 33.56430 | -86.75141 | 633 ft | 13 kts | 35° |
| 2026-05-09 00:47 | 33.56512 | -86.75146 | 634 ft | 12 kts | 0° |
| 2026-05-09 00:48 | 33.56557 | -86.75081 | 631 ft | 11 kts | 52° |
| 2026-05-09 00:48 | 33.56596 | -86.74995 | 632 ft | 12 kts | 97° |
| 2026-05-09 00:48 | 33.56600 | -86.74893 | 632 ft | 13 kts | 78° |
| 2026-05-09 00:48 | 33.56637 | -86.74798 | 638 ft | 13 kts | 58° |
| 2026-05-09 00:49 | 33.56688 | -86.74704 | 635 ft | 14 kts | 56° |
| 2026-05-09 00:49 | 33.56748 | -86.74599 | 633 ft | 16 kts | 53° |
| 2026-05-09 00:49 | 33.56812 | -86.74492 | 639 ft | 17 kts | 55° |
| 2026-05-09 00:49 | 33.56886 | -86.74368 | 636 ft | 20 kts | 54° |
| 2026-05-09 00:50 | 33.56969 | -86.74226 | 633 ft | 21 kts | 54° |
| 2026-05-09 00:50 | 33.57060 | -86.74072 | 634 ft | 24 kts | 55° |
| 2026-05-09 00:50 | 33.57151 | -86.73907 | 641 ft | 23 kts | 55° |
| 2026-05-09 00:50 | 33.57241 | -86.73841 | 641 ft | 16 kts | 340° |
| 2026-05-09 00:51 | 33.57267 | -86.73862 | 642 ft | 0 kts | 324° |
| 2026-05-09 00:52 | 33.57297 | -86.73888 | 640 ft | 13 kts | 322° |
| 2026-05-09 00:52 | 33.57271 | -86.74051 | 639 ft | 37 kts | 236° |
| 2026-05-09 00:52 | 33.56966 | -86.74572 | 635 ft | 114 kts | 234° |
| 2026-05-09 00:52 | 33.56374 | -86.75577 | 679 ft | 173 kts | 235° |
| 2026-05-09 00:53 | 33.55674 | -86.76819 | 1290 ft | 182 kts | 236° |
| 2026-05-09 00:53 | 33.55274 | -86.78247 | 2225 ft | 184 kts | 259° |
| 2026-05-09 00:53 | 33.55234 | -86.79832 | 2732 ft | 201 kts | 265° |
| 2026-05-09 00:53 | 33.55242 | -86.81614 | 3037 ft | 226 kts | 266° |
| 2026-05-09 00:54 | 33.55245 | -86.83600 | 3503 ft | 250 kts | 266° |
| 2026-05-09 00:54 | 33.55227 | -86.85749 | 3914 ft | 260 kts | 266° |
| 2026-05-09 00:54 | 33.55193 | -86.87912 | 3999 ft | 259 kts | 266° |
| 2026-05-09 00:54 | 33.55351 | -86.90076 | 4235 ft | 270 kts | 284° |
| 2026-05-09 00:55 | 33.56274 | -86.92037 | 5258 ft | 273 kts | 309° |
| 2026-05-09 00:55 | 33.57837 | -86.93349 | 6273 ft | 282 kts | 335° |
| 2026-05-09 00:55 | 33.59810 | -86.93627 | 7164 ft | 295 kts | 5° |
| 2026-05-09 00:55 | 33.61764 | -86.92794 | 8090 ft | 301 kts | 22° |
| 2026-05-09 00:56 | 33.63668 | -86.91721 | 9034 ft | 303 kts | 22° |
| 2026-05-09 00:56 | 33.65585 | -86.90628 | 9934 ft | 305 kts | 21° |
| 2026-05-09 00:56 | 33.67546 | -86.89516 | 10412 ft | 323 kts | 21° |
| 2026-05-09 00:56 | 33.69648 | -86.88339 | 10760 ft | 342 kts | 20° |
| 2026-05-09 00:57 | 33.71831 | -86.87122 | 11410 ft | 348 kts | 20° |
| 2026-05-09 00:57 | 33.74048 | -86.85885 | 12130 ft | 353 kts | 20° |
| 2026-05-09 00:57 | 33.76284 | -86.84635 | 12882 ft | 357 kts | 20° |
| 2026-05-09 00:57 | 33.78549 | -86.83368 | 13626 ft | 361 kts | 19° |
| 2026-05-09 00:58 | 33.80837 | -86.82090 | 14290 ft | 364 kts | 19° |
| 2026-05-09 00:58 | 33.83148 | -86.80797 | 14936 ft | 368 kts | 19° |
| 2026-05-09 00:58 | 33.85481 | -86.79494 | 15585 ft | 371 kts | 18° |
| 2026-05-09 00:58 | 33.87830 | -86.78182 | 16217 ft | 374 kts | 18° |
| 2026-05-09 00:59 | 33.90202 | -86.76854 | 16831 ft | 378 kts | 18° |
| 2026-05-09 00:59 | 33.92591 | -86.75511 | 17493 ft | 381 kts | 17° |
| 2026-05-09 00:59 | 33.95010 | -86.74151 | 18137 ft | 384 kts | 17° |
| 2026-05-09 00:59 | 33.97444 | -86.72784 | 18699 ft | 388 kts | 17° |
| 2026-05-09 01:00 | 33.99905 | -86.71405 | 19210 ft | 392 kts | 16° |
| 2026-05-09 01:00 | 34.02398 | -86.70011 | 19702 ft | 397 kts | 16° |
| 2026-05-09 01:00 | 34.04950 | -86.68708 | 20188 ft | 396 kts | 9° |
| 2026-05-09 01:00 | 34.07601 | -86.67944 | 20672 ft | 389 kts | 358° |
| 2026-05-09 01:01 | 34.10278 | -86.67765 | 21159 ft | 384 kts | 349° |
| 2026-05-09 01:01 | 34.12964 | -86.67786 | 21668 ft | 388 kts | 349° |
| 2026-05-09 01:01 | 34.15675 | -86.67807 | 22163 ft | 392 kts | 349° |
| 2026-05-09 01:01 | 34.18420 | -86.67825 | 22736 ft | 395 kts | 349° |
| 2026-05-09 01:02 | 34.21183 | -86.67836 | 23307 ft | 397 kts | 349° |
| 2026-05-09 01:02 | 34.23955 | -86.67841 | 23784 ft | 401 kts | 348° |
| 2026-05-09 01:02 | 34.26755 | -86.67847 | 24176 ft | 405 kts | 348° |
| 2026-05-09 01:02 | 34.29586 | -86.67855 | 24552 ft | 409 kts | 348° |
| 2026-05-09 01:03 | 34.32443 | -86.67866 | 24925 ft | 413 kts | 348° |
| 2026-05-09 01:03 | 34.35329 | -86.67877 | 25298 ft | 417 kts | 348° |
| 2026-05-09 01:03 | 34.38242 | -86.67891 | 25668 ft | 421 kts | 348° |
| 2026-05-09 01:03 | 34.41183 | -86.67904 | 26022 ft | 425 kts | 347° |
| 2026-05-09 01:04 | 34.44153 | -86.67915 | 26426 ft | 429 kts | 347° |
| 2026-05-09 01:04 | 34.47146 | -86.67923 | 26796 ft | 432 kts | 347° |
| 2026-05-09 01:04 | 34.50163 | -86.67931 | 27146 ft | 435 kts | 347° |
| 2026-05-09 01:04 | 34.53202 | -86.67942 | 27498 ft | 439 kts | 347° |
| 2026-05-09 01:05 | 34.56275 | -86.67954 | 27834 ft | 443 kts | 346° |
| 2026-05-09 01:05 | 34.59369 | -86.67966 | 28166 ft | 447 kts | 346° |
| 2026-05-09 01:05 | 34.65643 | -86.67984 | 28850 ft | 455 kts | 346° |
| 2026-05-09 01:06 | 34.68821 | -86.67991 | 29169 ft | 458 kts | 346° |
| 2026-05-09 01:06 | 34.72020 | -86.67997 | 29599 ft | 461 kts | 346° |
| 2026-05-09 01:06 | 34.75237 | -86.68006 | 29950 ft | 464 kts | 345° |
| 2026-05-09 01:06 | 34.78477 | -86.68017 | 30244 ft | 467 kts | 345° |
| 2026-05-09 01:07 | 34.81732 | -86.68031 | 30542 ft | 469 kts | 345° |
| 2026-05-09 01:07 | 34.85010 | -86.68045 | 30824 ft | 472 kts | 345° |
| 2026-05-09 01:07 | 34.88300 | -86.68059 | 31112 ft | 474 kts | 345° |
| 2026-05-09 01:07 | 34.91601 | -86.68073 | 31398 ft | 476 kts | 346° |
| 2026-05-09 01:08 | 34.94920 | -86.68084 | 31733 ft | 478 kts | 346° |
| 2026-05-09 01:08 | 34.98239 | -86.68088 | 32177 ft | 475 kts | 346° |
| 2026-05-09 01:08 | 35.01557 | -86.68089 | 32605 ft | 474 kts | 345° |
| 2026-05-09 01:08 | 35.04856 | -86.68092 | 33011 ft | 473 kts | 345° |
| 2026-05-09 01:09 | 35.08142 | -86.68100 | 33416 ft | 472 kts | 345° |
| 2026-05-09 01:09 | 35.11431 | -86.68108 | 33826 ft | 472 kts | 345° |
| 2026-05-09 01:09 | 35.14719 | -86.68120 | 34194 ft | 471 kts | 345° |
| 2026-05-09 01:09 | 35.18003 | -86.68135 | 34542 ft | 470 kts | 345° |
| 2026-05-09 01:10 | 35.21220 | -86.68151 | 34963 ft | 468 kts | 344° |
| 2026-05-09 01:10 | 35.24475 | -86.68165 | 35331 ft | 467 kts | 344° |
| 2026-05-09 01:10 | 35.27718 | -86.68174 | 35680 ft | 465 kts | 344° |
| 2026-05-09 01:10 | 35.30955 | -86.68181 | 36050 ft | 463 kts | 344° |
| 2026-05-09 01:11 | 35.34172 | -86.68186 | 36408 ft | 461 kts | 344° |
| 2026-05-09 01:11 | 35.37385 | -86.68193 | 36650 ft | 462 kts | 344° |
| 2026-05-09 01:11 | 35.40615 | -86.68212 | 36775 ft | 466 kts | 344° |
| 2026-05-09 01:11 | 35.43866 | -86.68232 | 36932 ft | 469 kts | 344° |
| 2026-05-09 01:12 | 35.47145 | -86.68252 | 37002 ft | 474 kts | 344° |
| 2026-05-09 01:12 | 35.53807 | -86.68291 | 36974 ft | 482 kts | 345° |
| 2026-05-09 01:13 | 35.60525 | -86.68311 | 36974 ft | 483 kts | 345° |
| 2026-05-09 01:13 | 35.67265 | -86.68315 | 36977 ft | 484 kts | 345° |
| 2026-05-09 01:14 | 35.73996 | -86.68330 | 36976 ft | 483 kts | 345° |
| 2026-05-09 01:14 | 35.80721 | -86.68354 | 36974 ft | 483 kts | 345° |
| 2026-05-09 01:15 | 35.87412 | -86.68384 | 36975 ft | 483 kts | 345° |
| 2026-05-09 01:15 | 35.93019 | -86.68404 | 36975 ft | 484 kts | 345° |
| 2026-05-09 01:16 | 35.99752 | -86.68427 | 36963 ft | 484 kts | 345° |
| 2026-05-09 01:16 | 36.06489 | -86.68448 | 36966 ft | 484 kts | 345° |
| 2026-05-09 01:17 | 36.13293 | -86.68051 | 36962 ft | 508 kts | 357° |
| 2026-05-09 01:17 | 36.16760 | -86.66833 | 36962 ft | 530 kts | 9° |
| 2026-05-09 01:17 | 36.23567 | -86.63099 | 36967 ft | 535 kts | 12° |
| 2026-05-09 01:18 | 36.30354 | -86.59330 | 36967 ft | 534 kts | 12° |
| 2026-05-09 01:18 | 36.37146 | -86.55586 | 36947 ft | 534 kts | 12° |
| 2026-05-09 01:19 | 36.43941 | -86.51846 | 36958 ft | 534 kts | 12° |
| 2026-05-09 01:19 | 36.50740 | -86.48105 | 37002 ft | 534 kts | 12° |
| 2026-05-09 01:20 | 36.57537 | -86.44343 | 36983 ft | 534 kts | 12° |
| 2026-05-09 01:20 | 36.64335 | -86.40571 | 36967 ft | 534 kts | 12° |
| 2026-05-09 01:21 | 36.71128 | -86.36795 | 36977 ft | 534 kts | 12° |
| 2026-05-09 01:21 | 36.77899 | -86.33016 | 36939 ft | 533 kts | 12° |
| 2026-05-09 01:22 | 36.84666 | -86.29239 | 36936 ft | 533 kts | 12° |
| 2026-05-09 01:22 | 36.91450 | -86.25450 | 36932 ft | 533 kts | 12° |
| 2026-05-09 01:23 | 36.98213 | -86.21667 | 36953 ft | 532 kts | 12° |
| 2026-05-09 01:23 | 37.04964 | -86.17877 | 36949 ft | 532 kts | 12° |
| 2026-05-09 01:24 | 37.11720 | -86.14086 | 36943 ft | 532 kts | 12° |
| 2026-05-09 01:24 | 37.18479 | -86.10278 | 36980 ft | 532 kts | 12° |
| 2026-05-09 01:25 | 37.25189 | -86.06483 | 36961 ft | 532 kts | 12° |
| 2026-05-09 01:25 | 37.31933 | -86.02667 | 36940 ft | 531 kts | 12° |
| 2026-05-09 01:26 | 37.38678 | -85.98843 | 36932 ft | 531 kts | 12° |
| 2026-05-09 01:26 | 37.45411 | -85.95017 | 36934 ft | 529 kts | 12° |
| 2026-05-09 01:27 | 37.52115 | -85.91196 | 36924 ft | 529 kts | 12° |
| 2026-05-09 01:27 | 37.58821 | -85.87141 | 36924 ft | 535 kts | 16° |
| 2026-05-09 01:28 | 37.65329 | -85.82603 | 36976 ft | 539 kts | 19° |
| 2026-05-09 01:28 | 37.71836 | -85.77888 | 36959 ft | 538 kts | 19° |
| 2026-05-09 01:29 | 37.78370 | -85.73295 | 36939 ft | 534 kts | 18° |
| 2026-05-09 01:29 | 37.84828 | -85.68861 | 36921 ft | 525 kts | 17° |
| 2026-05-09 01:30 | 37.91240 | -85.64470 | 36906 ft | 523 kts | 18° |
| 2026-05-09 01:30 | 37.97635 | -85.60055 | 36917 ft | 524 kts | 18° |
| 2026-05-09 01:31 | 38.04018 | -85.55606 | 36914 ft | 523 kts | 18° |
| 2026-05-09 01:31 | 38.10438 | -85.51115 | 36920 ft | 523 kts | 18° |
| 2026-05-09 01:32 | 38.16782 | -85.46685 | 36944 ft | 524 kts | 18° |
| 2026-05-09 01:32 | 38.23205 | -85.42196 | 36938 ft | 524 kts | 18° |
| 2026-05-09 01:33 | 38.29589 | -85.37728 | 36934 ft | 524 kts | 18° |
| 2026-05-09 01:33 | 38.35965 | -85.33239 | 36926 ft | 524 kts | 18° |
| 2026-05-09 01:34 | 38.42340 | -85.28747 | 36917 ft | 523 kts | 18° |
| 2026-05-09 01:34 | 38.48719 | -85.24248 | 36922 ft | 524 kts | 18° |
| 2026-05-09 01:35 | 38.55095 | -85.19744 | 36919 ft | 524 kts | 18° |
| 2026-05-09 01:35 | 38.61455 | -85.15235 | 36919 ft | 522 kts | 18° |
| 2026-05-09 01:36 | 38.67808 | -85.10718 | 36499 ft | 522 kts | 18° |
| 2026-05-09 01:36 | 38.70984 | -85.08454 | 36245 ft | 521 kts | 19° |
| 2026-05-09 01:36 | 38.74149 | -85.06199 | 35997 ft | 520 kts | 18° |
| 2026-05-09 01:37 | 38.77308 | -85.03949 | 35741 ft | 522 kts | 18° |
| 2026-05-09 01:37 | 38.80497 | -85.01683 | 35525 ft | 523 kts | 18° |
| 2026-05-09 01:37 | 38.83638 | -84.99447 | 34994 ft | 522 kts | 19° |
| 2026-05-09 01:37 | 38.86845 | -84.97157 | 34446 ft | 520 kts | 19° |
| 2026-05-09 01:38 | 38.90018 | -84.94884 | 33904 ft | 525 kts | 19° |
| 2026-05-09 01:38 | 38.93190 | -84.92604 | 33287 ft | 523 kts | 19° |
| 2026-05-09 01:38 | 38.96311 | -84.90351 | 32755 ft | 518 kts | 20° |
| 2026-05-09 01:38 | 38.99466 | -84.88077 | 32181 ft | 520 kts | 20° |
| 2026-05-09 01:39 | 39.02612 | -84.85820 | 31660 ft | 516 kts | 20° |
| 2026-05-09 01:39 | 39.05745 | -84.83572 | 31098 ft | 516 kts | 21° |
| 2026-05-09 01:39 | 39.08875 | -84.81328 | 30461 ft | 514 kts | 21° |
| 2026-05-09 01:39 | 39.12003 | -84.79084 | 29404 ft | 516 kts | 22° |
| 2026-05-09 01:40 | 39.15141 | -84.76828 | 28302 ft | 517 kts | 22° |
| 2026-05-09 01:40 | 39.18271 | -84.74569 | 27437 ft | 512 kts | 23° |
| 2026-05-09 01:40 | 39.21356 | -84.72332 | 26665 ft | 506 kts | 23° |
| 2026-05-09 01:40 | 39.24412 | -84.70113 | 25728 ft | 503 kts | 23° |
| 2026-05-09 01:41 | 39.27439 | -84.67912 | 24746 ft | 493 kts | 23° |
| 2026-05-09 01:41 | 39.30383 | -84.65764 | 23810 ft | 480 kts | 23° |
| 2026-05-09 01:41 | 39.33251 | -84.63669 | 22779 ft | 468 kts | 23° |
| 2026-05-09 01:41 | 39.36087 | -84.61604 | 21706 ft | 457 kts | 23° |
| 2026-05-09 01:42 | 39.38800 | -84.59634 | 20682 ft | 447 kts | 23° |
| 2026-05-09 01:42 | 39.41480 | -84.57691 | 19708 ft | 437 kts | 23° |
| 2026-05-09 01:42 | 39.44105 | -84.55788 | 18750 ft | 428 kts | 22° |
| 2026-05-09 01:42 | 39.46686 | -84.53915 | 17778 ft | 422 kts | 23° |
| 2026-05-09 01:43 | 39.49233 | -84.52060 | 16723 ft | 416 kts | 23° |
| 2026-05-09 01:43 | 39.51583 | -84.49882 | 15707 ft | 419 kts | 39° |
| 2026-05-09 01:43 | 39.53553 | -84.47115 | 14723 ft | 415 kts | 44° |
| 2026-05-09 01:43 | 39.55451 | -84.44337 | 13766 ft | 408 kts | 44° |
| 2026-05-09 01:44 | 39.57319 | -84.41611 | 12712 ft | 401 kts | 44° |
| 2026-05-09 01:44 | 39.59165 | -84.38937 | 11683 ft | 395 kts | 44° |
| 2026-05-09 01:44 | 39.60997 | -84.36316 | 10720 ft | 389 kts | 44° |
| 2026-05-09 01:44 | 39.62780 | -84.33785 | 10214 ft | 372 kts | 44° |
| 2026-05-09 01:45 | 39.64492 | -84.31359 | 9730 ft | 358 kts | 44° |
| 2026-05-09 01:45 | 39.66152 | -84.29021 | 9197 ft | 346 kts | 44° |
| 2026-05-09 01:45 | 39.67764 | -84.26775 | 8682 ft | 336 kts | 44° |
| 2026-05-09 01:45 | 39.69347 | -84.24596 | 8168 ft | 328 kts | 44° |
| 2026-05-09 01:46 | 39.70911 | -84.22483 | 7660 ft | 321 kts | 44° |
| 2026-05-09 01:46 | 39.72457 | -84.20427 | 7158 ft | 315 kts | 44° |
| 2026-05-09 01:46 | 39.73982 | -84.18429 | 6659 ft | 309 kts | 44° |
| 2026-05-09 01:46 | 39.75498 | -84.16482 | 6159 ft | 304 kts | 44° |
| 2026-05-09 01:47 | 39.77007 | -84.14574 | 5651 ft | 300 kts | 44° |
| 2026-05-09 01:47 | 39.78498 | -84.12702 | 5149 ft | 297 kts | 43° |
| 2026-05-09 01:47 | 39.79975 | -84.10850 | 4647 ft | 293 kts | 43° |
| 2026-05-09 01:47 | 39.81439 | -84.09020 | 4143 ft | 289 kts | 43° |
| 2026-05-09 01:48 | 39.82863 | -84.07244 | 3978 ft | 279 kts | 43° |
| 2026-05-09 01:48 | 39.84261 | -84.05498 | 3989 ft | 279 kts | 43° |
| 2026-05-09 01:48 | 39.85657 | -84.03755 | 3988 ft | 277 kts | 43° |
| 2026-05-09 01:48 | 39.87050 | -84.02016 | 3990 ft | 278 kts | 43° |
| 2026-05-09 01:49 | 39.88441 | -84.00257 | 3993 ft | 282 kts | 43° |
| 2026-05-09 01:49 | 39.89840 | -83.98441 | 3991 ft | 285 kts | 43° |
| 2026-05-09 01:49 | 39.91247 | -83.96615 | 3989 ft | 285 kts | 43° |
| 2026-05-09 01:49 | 39.92634 | -83.94804 | 3979 ft | 276 kts | 42° |
| 2026-05-09 01:50 | 39.94175 | -83.93509 | 3955 ft | 256 kts | 13° |
| 2026-05-09 01:50 | 39.95880 | -83.93315 | 3583 ft | 240 kts | 341° |
| 2026-05-09 01:50 | 39.97381 | -83.94096 | 3216 ft | 230 kts | 325° |
| 2026-05-09 01:50 | 39.98769 | -83.95089 | 2970 ft | 223 kts | 323° |
| 2026-05-09 01:51 | 39.99656 | -83.95744 | 2971 ft | 217 kts | 323° |
| 2026-05-09 01:51 | 40.00705 | -83.96980 | 2980 ft | 191 kts | 291° |
| 2026-05-09 01:51 | 40.00973 | -83.98591 | 2996 ft | 184 kts | 267° |
| 2026-05-09 01:51 | 40.00939 | -84.00323 | 2981 ft | 195 kts | 264° |
| 2026-05-09 01:52 | 40.00864 | -84.02104 | 2986 ft | 201 kts | 263° |
| 2026-05-09 01:52 | 40.00500 | -84.03865 | 2998 ft | 204 kts | 240° |
| 2026-05-09 01:52 | 39.99703 | -84.05410 | 3000 ft | 205 kts | 235° |
| 2026-05-09 01:52 | 39.98885 | -84.06944 | 3004 ft | 206 kts | 236° |
| 2026-05-09 01:53 | 39.98066 | -84.08487 | 3005 ft | 207 kts | 235° |
| 2026-05-09 01:53 | 39.97249 | -84.10028 | 3000 ft | 207 kts | 235° |
| 2026-05-09 01:53 | 39.96457 | -84.11522 | 2830 ft | 195 kts | 236° |
| 2026-05-09 01:53 | 39.95719 | -84.12913 | 2623 ft | 177 kts | 236° |
| 2026-05-09 01:54 | 39.95049 | -84.14177 | 2397 ft | 162 kts | 236° |
| 2026-05-09 01:54 | 39.94440 | -84.15325 | 2189 ft | 145 kts | 236° |
| 2026-05-09 01:54 | 39.93901 | -84.16353 | 1993 ft | 132 kts | 237° |
| 2026-05-09 01:54 | 39.93379 | -84.17359 | 1715 ft | 133 kts | 236° |
| 2026-05-09 01:55 | 39.92838 | -84.18359 | 1552 ft | 137 kts | 236° |
| 2026-05-09 01:55 | 39.92284 | -84.19373 | 1416 ft | 138 kts | 236° |
| 2026-05-09 01:55 | 39.91735 | -84.20421 | 1261 ft | 141 kts | 237° |
| 2026-05-09 01:55 | 39.91175 | -84.21472 | 1051 ft | 141 kts | 237° |
| 2026-05-09 01:56 | 39.90667 | -84.22449 | 1013 ft | 106 kts | 236° |
| 2026-05-09 01:56 | 39.90405 | -84.22940 | 1011 ft | 47 kts | 234° |
| 2026-05-09 01:56 | 39.90234 | -84.23250 | 1014 ft | 25 kts | 235° |
| 2026-05-09 01:56 | 39.90114 | -84.23224 | 1016 ft | 24 kts | 94° |
| 2026-05-09 01:57 | 39.90198 | -84.23030 | 1014 ft | 27 kts | 56° |
| 2026-05-09 01:57 | 39.90313 | -84.22816 | 1013 ft | 30 kts | 54° |
| 2026-05-09 01:57 | 39.90440 | -84.22578 | 1013 ft | 33 kts | 59° |
| 2026-05-09 01:57 | 39.90565 | -84.22332 | 1012 ft | 21 kts | 56° |
| 2026-05-09 01:58 | 39.90545 | -84.22291 | 1011 ft | 7 kts | 146° |
| 2026-05-09 01:58 | 39.90497 | -84.22249 | 1011 ft | 10 kts | 146° |
| 2026-05-09 01:58 | 39.90432 | -84.22190 | 1011 ft | 13 kts | 145° |
| 2026-05-09 01:58 | 39.90338 | -84.22106 | 1009 ft | 19 kts | 148° |
| 2026-05-09 01:59 | 39.90230 | -84.22038 | 1011 ft | 16 kts | 174° |
| 2026-05-09 01:59 | 39.90144 | -84.22052 | 1012 ft | 11 kts | 179° |
| 2026-05-09 01:59 | 39.90105 | -84.22019 | 1013 ft | 2 kts | 171° |
| 2026-05-09 01:59 | 39.90100 | -84.22018 | 1013 ft | 0 kts | 172° |